sensor_id;sensor_type;location;lat;lon;timestamp;P1;durP1;ratioP1;P2;durP2;ratioP2
3329;SDS011;1677;49.576;10.990;2023-02-25T00:01:19;6.25;;;4.90;;
3329;SDS011;1677;49.576;10.990;2023-02-25T00:03:45;6.93;;;5.22;;
3329;SDS011;1677;49.576;10.990;2023-02-25T00:06:12;7.68;;;5.57;;
3329;SDS011;1677;49.576;10.990;2023-02-25T00:08:39;6.82;;;5.40;;
3329;SDS011;1677;49.576;10.990;2023-02-25T00:11:08;7.20;;;4.82;;
3329;SDS011;1677;49.576;10.990;2023-02-25T00:13:35;9.00;;;5.10;;
3329;SDS011;1677;49.576;10.990;2023-02-25T00:16:03;7.70;;;5.25;;
3329;SDS011;1677;49.576;10.990;2023-02-25T00:18:29;7.65;;;5.70;;
3329;SDS011;1677;49.576;10.990;2023-02-25T00:20:55;7.65;;;4.60;;
3329;SDS011;1677;49.576;10.990;2023-02-25T00:23:22;9.93;;;6.55;;
3329;SDS011;1677;49.576;10.990;2023-02-25T00:25:47;8.70;;;6.20;;
3329;SDS011;1677;49.576;10.990;2023-02-25T00:28:13;9.80;;;6.67;;
3329;SDS011;1677;49.576;10.990;2023-02-25T00:30:39;6.80;;;5.10;;
3329;SDS011;1677;49.576;10.990;2023-02-25T00:33:06;7.35;;;5.00;;
3329;SDS011;1677;49.576;10.990;2023-02-25T00:35:32;8.10;;;4.43;;
3329;SDS011;1677;49.576;10.990;2023-02-25T00:37:58;7.80;;;5.23;;
3329;SDS011;1677;49.576;10.990;2023-02-25T00:40:24;8.18;;;5.97;;
3329;SDS011;1677;49.576;10.990;2023-02-25T00:42:50;8.73;;;4.77;;
3329;SDS011;1677;49.576;10.990;2023-02-25T00:45:16;7.63;;;5.70;;
3329;SDS011;1677;49.576;10.990;2023-02-25T00:47:41;5.97;;;4.77;;
3329;SDS011;1677;49.576;10.990;2023-02-25T00:50:08;8.10;;;5.47;;
3329;SDS011;1677;49.576;10.990;2023-02-25T00:52:35;6.80;;;4.50;;
3329;SDS011;1677;49.576;10.990;2023-02-25T00:55:02;10.13;;;5.30;;
3329;SDS011;1677;49.576;10.990;2023-02-25T00:57:29;7.05;;;5.38;;
3329;SDS011;1677;49.576;10.990;2023-02-25T00:59:54;8.10;;;6.20;;
3329;SDS011;1677;49.576;10.990;2023-02-25T01:02:20;7.27;;;5.60;;
3329;SDS011;1677;49.576;10.990;2023-02-25T01:04:46;10.70;;;6.00;;
3329;SDS011;1677;49.576;10.990;2023-02-25T01:07:11;5.53;;;4.60;;
3329;SDS011;1677;49.576;10.990;2023-02-25T01:09:37;7.07;;;4.63;;
3329;SDS011;1677;49.576;10.990;2023-02-25T01:12:03;7.50;;;5.13;;
3329;SDS011;1677;49.576;10.990;2023-02-25T01:14:28;7.70;;;5.33;;
3329;SDS011;1677;49.576;10.990;2023-02-25T01:16:55;7.85;;;5.03;;
3329;SDS011;1677;49.576;10.990;2023-02-25T01:19:25;7.00;;;5.55;;
3329;SDS011;1677;49.576;10.990;2023-02-25T01:21:52;8.53;;;4.60;;
3329;SDS011;1677;49.576;10.990;2023-02-25T01:24:21;7.63;;;5.45;;
3329;SDS011;1677;49.576;10.990;2023-02-25T01:26:48;9.73;;;5.00;;
3329;SDS011;1677;49.576;10.990;2023-02-25T01:29:16;9.27;;;5.82;;
3329;SDS011;1677;49.576;10.990;2023-02-25T01:31:44;7.13;;;6.22;;
3329;SDS011;1677;49.576;10.990;2023-02-25T01:34:14;7.80;;;5.60;;
3329;SDS011;1677;49.576;10.990;2023-02-25T01:36:41;8.10;;;5.32;;
3329;SDS011;1677;49.576;10.990;2023-02-25T01:39:08;8.50;;;6.03;;
3329;SDS011;1677;49.576;10.990;2023-02-25T01:41:34;7.95;;;4.90;;
3329;SDS011;1677;49.576;10.990;2023-02-25T01:44:01;10.52;;;5.95;;
3329;SDS011;1677;49.576;10.990;2023-02-25T01:46:32;11.35;;;6.70;;
3329;SDS011;1677;49.576;10.990;2023-02-25T01:48:58;7.68;;;5.82;;
3329;SDS011;1677;49.576;10.990;2023-02-25T01:51:25;8.23;;;5.85;;
3329;SDS011;1677;49.576;10.990;2023-02-25T01:53:52;9.55;;;6.43;;
3329;SDS011;1677;49.576;10.990;2023-02-25T01:56:21;8.50;;;5.03;;
3329;SDS011;1677;49.576;10.990;2023-02-25T01:58:49;8.93;;;6.00;;
3329;SDS011;1677;49.576;10.990;2023-02-25T02:01:18;6.35;;;4.80;;
3329;SDS011;1677;49.576;10.990;2023-02-25T02:03:46;8.65;;;5.13;;
3329;SDS011;1677;49.576;10.990;2023-02-25T02:06:19;7.43;;;4.35;;
3329;SDS011;1677;49.576;10.990;2023-02-25T02:08:54;7.20;;;5.43;;
3329;SDS011;1677;49.576;10.990;2023-02-25T02:11:20;6.68;;;4.18;;
3329;SDS011;1677;49.576;10.990;2023-02-25T02:13:47;6.40;;;5.00;;
3329;SDS011;1677;49.576;10.990;2023-02-25T02:18:52;7.63;;;4.53;;
3329;SDS011;1677;49.576;10.990;2023-02-25T02:21:44;12.57;;;4.45;;
3329;SDS011;1677;49.576;10.990;2023-02-25T02:27:06;4.25;;;3.45;;
3329;SDS011;1677;49.576;10.990;2023-02-25T02:29:40;6.82;;;4.50;;
3329;SDS011;1677;49.576;10.990;2023-02-25T02:32:35;6.20;;;4.63;;
3329;SDS011;1677;49.576;10.990;2023-02-25T02:35:17;9.23;;;4.82;;
3329;SDS011;1677;49.576;10.990;2023-02-25T02:38:09;9.82;;;5.18;;
3329;SDS011;1677;49.576;10.990;2023-02-25T02:40:42;8.23;;;4.85;;
3329;SDS011;1677;49.576;10.990;2023-02-25T02:43:38;10.50;;;4.97;;
3329;SDS011;1677;49.576;10.990;2023-02-25T02:46:23;8.02;;;4.53;;
3329;SDS011;1677;49.576;10.990;2023-02-25T02:49:10;5.60;;;4.30;;
3329;SDS011;1677;49.576;10.990;2023-02-25T02:51:43;8.07;;;5.28;;
3329;SDS011;1677;49.576;10.990;2023-02-25T02:54:21;6.78;;;4.53;;
3329;SDS011;1677;49.576;10.990;2023-02-25T02:56:49;9.88;;;5.85;;
3329;SDS011;1677;49.576;10.990;2023-02-25T02:59:25;9.32;;;5.10;;
3329;SDS011;1677;49.576;10.990;2023-02-25T03:01:57;6.45;;;4.90;;
3329;SDS011;1677;49.576;10.990;2023-02-25T03:04:35;9.40;;;4.53;;
3329;SDS011;1677;49.576;10.990;2023-02-25T03:07:04;6.90;;;4.18;;
3329;SDS011;1677;49.576;10.990;2023-02-25T03:09:35;7.03;;;4.57;;
3329;SDS011;1677;49.576;10.990;2023-02-25T03:12:07;8.40;;;5.10;;
3329;SDS011;1677;49.576;10.990;2023-02-25T03:14:32;8.83;;;4.50;;
3329;SDS011;1677;49.576;10.990;2023-02-25T03:17:03;7.20;;;4.70;;
3329;SDS011;1677;49.576;10.990;2023-02-25T03:22:12;7.65;;;5.28;;
3329;SDS011;1677;49.576;10.990;2023-02-25T03:24:59;5.45;;;4.05;;
3329;SDS011;1677;49.576;10.990;2023-02-25T03:27:42;3.97;;;3.55;;
3329;SDS011;1677;49.576;10.990;2023-02-25T03:32:42;9.02;;;5.00;;
3329;SDS011;1677;49.576;10.990;2023-02-25T03:35:11;5.55;;;3.70;;
3329;SDS011;1677;49.576;10.990;2023-02-25T03:37:38;8.77;;;3.97;;
3329;SDS011;1677;49.576;10.990;2023-02-25T03:40:08;9.48;;;4.93;;
3329;SDS011;1677;49.576;10.990;2023-02-25T03:42:37;5.82;;;3.28;;
3329;SDS011;1677;49.576;10.990;2023-02-25T03:45:07;7.15;;;3.42;;
3329;SDS011;1677;49.576;10.990;2023-02-25T03:47:36;3.67;;;3.03;;
3329;SDS011;1677;49.576;10.990;2023-02-25T03:52:40;5.93;;;3.47;;
3329;SDS011;1677;49.576;10.990;2023-02-25T03:55:06;5.78;;;2.65;;
3329;SDS011;1677;49.576;10.990;2023-02-25T03:57:37;3.35;;;2.75;;
3329;SDS011;1677;49.576;10.990;2023-02-25T04:00:06;4.82;;;4.00;;
3329;SDS011;1677;49.576;10.990;2023-02-25T04:02:40;9.48;;;3.63;;
3329;SDS011;1677;49.576;10.990;2023-02-25T04:05:06;6.03;;;2.75;;
3329;SDS011;1677;49.576;10.990;2023-02-25T04:07:34;8.52;;;3.00;;
3329;SDS011;1677;49.576;10.990;2023-02-25T04:10:00;6.77;;;3.77;;
3329;SDS011;1677;49.576;10.990;2023-02-25T04:12:25;5.10;;;2.60;;
3329;SDS011;1677;49.576;10.990;2023-02-25T04:14:51;4.90;;;3.50;;
3329;SDS011;1677;49.576;10.990;2023-02-25T04:17:17;11.40;;;2.60;;
3329;SDS011;1677;49.576;10.990;2023-02-25T04:19:43;5.03;;;2.95;;
3329;SDS011;1677;49.576;10.990;2023-02-25T04:22:09;6.73;;;3.30;;
3329;SDS011;1677;49.576;10.990;2023-02-25T04:24:34;7.53;;;3.00;;
3329;SDS011;1677;49.576;10.990;2023-02-25T04:27:00;4.00;;;2.60;;
3329;SDS011;1677;49.576;10.990;2023-02-25T04:29:26;5.28;;;2.33;;
3329;SDS011;1677;49.576;10.990;2023-02-25T04:31:52;4.72;;;2.80;;
3329;SDS011;1677;49.576;10.990;2023-02-25T04:34:18;7.03;;;3.30;;
3329;SDS011;1677;49.576;10.990;2023-02-25T04:36:44;5.57;;;3.50;;
3329;SDS011;1677;49.576;10.990;2023-02-25T04:39:11;11.05;;;2.97;;
3329;SDS011;1677;49.576;10.990;2023-02-25T04:41:38;7.35;;;2.90;;
3329;SDS011;1677;49.576;10.990;2023-02-25T04:44:04;4.23;;;2.37;;
3329;SDS011;1677;49.576;10.990;2023-02-25T04:46:31;4.07;;;2.78;;
3329;SDS011;1677;49.576;10.990;2023-02-25T04:48:58;7.35;;;2.75;;
3329;SDS011;1677;49.576;10.990;2023-02-25T04:51:24;5.05;;;1.92;;
3329;SDS011;1677;49.576;10.990;2023-02-25T04:53:50;5.27;;;2.63;;
3329;SDS011;1677;49.576;10.990;2023-02-25T04:56:16;3.43;;;2.50;;
3329;SDS011;1677;49.576;10.990;2023-02-25T04:58:42;5.10;;;2.60;;
3329;SDS011;1677;49.576;10.990;2023-02-25T05:01:08;6.20;;;2.13;;
3329;SDS011;1677;49.576;10.990;2023-02-25T05:03:35;3.78;;;2.05;;
3329;SDS011;1677;49.576;10.990;2023-02-25T05:06:00;5.63;;;2.33;;
3329;SDS011;1677;49.576;10.990;2023-02-25T05:08:26;2.57;;;2.37;;
3329;SDS011;1677;49.576;10.990;2023-02-25T05:10:52;5.13;;;2.33;;
3329;SDS011;1677;49.576;10.990;2023-02-25T05:13:18;4.53;;;2.37;;
3329;SDS011;1677;49.576;10.990;2023-02-25T05:15:44;6.25;;;3.03;;
3329;SDS011;1677;49.576;10.990;2023-02-25T05:18:10;3.67;;;2.30;;
3329;SDS011;1677;49.576;10.990;2023-02-25T05:20:46;4.60;;;2.60;;
3329;SDS011;1677;49.576;10.990;2023-02-25T05:23:12;5.45;;;2.53;;
3329;SDS011;1677;49.576;10.990;2023-02-25T05:25:38;4.57;;;2.70;;
3329;SDS011;1677;49.576;10.990;2023-02-25T05:28:07;4.20;;;2.20;;
3329;SDS011;1677;49.576;10.990;2023-02-25T05:30:33;5.07;;;2.53;;
3329;SDS011;1677;49.576;10.990;2023-02-25T05:33:00;4.75;;;2.50;;
3329;SDS011;1677;49.576;10.990;2023-02-25T05:35:26;3.40;;;2.23;;
3329;SDS011;1677;49.576;10.990;2023-02-25T05:37:51;5.53;;;2.63;;
3329;SDS011;1677;49.576;10.990;2023-02-25T05:40:18;4.45;;;2.65;;
3329;SDS011;1677;49.576;10.990;2023-02-25T05:42:44;3.77;;;2.70;;
3329;SDS011;1677;49.576;10.990;2023-02-25T05:45:13;5.60;;;2.35;;
3329;SDS011;1677;49.576;10.990;2023-02-25T05:47:39;5.20;;;2.33;;
3329;SDS011;1677;49.576;10.990;2023-02-25T05:50:05;5.03;;;2.40;;
3329;SDS011;1677;49.576;10.990;2023-02-25T05:52:31;4.68;;;2.33;;
3329;SDS011;1677;49.576;10.990;2023-02-25T05:54:57;3.80;;;2.73;;
3329;SDS011;1677;49.576;10.990;2023-02-25T05:57:22;4.43;;;2.90;;
3329;SDS011;1677;49.576;10.990;2023-02-25T05:59:48;4.23;;;2.83;;
3329;SDS011;1677;49.576;10.990;2023-02-25T06:02:14;7.22;;;2.85;;
3329;SDS011;1677;49.576;10.990;2023-02-25T06:04:40;6.00;;;2.50;;
3329;SDS011;1677;49.576;10.990;2023-02-25T06:07:05;3.43;;;2.23;;
3329;SDS011;1677;49.576;10.990;2023-02-25T06:09:31;5.07;;;2.60;;
3329;SDS011;1677;49.576;10.990;2023-02-25T06:11:58;10.63;;;3.13;;
3329;SDS011;1677;49.576;10.990;2023-02-25T06:14:25;3.75;;;2.92;;
3329;SDS011;1677;49.576;10.990;2023-02-25T06:16:51;9.00;;;2.70;;
3329;SDS011;1677;49.576;10.990;2023-02-25T06:19:20;8.02;;;2.75;;
3329;SDS011;1677;49.576;10.990;2023-02-25T06:21:47;3.67;;;2.35;;
3329;SDS011;1677;49.576;10.990;2023-02-25T06:24:12;4.47;;;2.10;;
3329;SDS011;1677;49.576;10.990;2023-02-25T06:26:40;10.18;;;2.83;;
3329;SDS011;1677;49.576;10.990;2023-02-25T06:29:09;3.90;;;2.80;;
3329;SDS011;1677;49.576;10.990;2023-02-25T06:31:35;2.90;;;2.70;;
3329;SDS011;1677;49.576;10.990;2023-02-25T06:34:00;6.23;;;2.60;;
3329;SDS011;1677;49.576;10.990;2023-02-25T06:36:26;7.47;;;2.30;;
3329;SDS011;1677;49.576;10.990;2023-02-25T06:38:52;4.63;;;2.10;;
3329;SDS011;1677;49.576;10.990;2023-02-25T06:41:19;6.20;;;2.20;;
3329;SDS011;1677;49.576;10.990;2023-02-25T06:43:46;4.32;;;2.80;;
3329;SDS011;1677;49.576;10.990;2023-02-25T06:46:16;5.53;;;3.13;;
3329;SDS011;1677;49.576;10.990;2023-02-25T06:48:44;10.38;;;4.82;;
3329;SDS011;1677;49.576;10.990;2023-02-25T06:51:09;8.00;;;3.40;;
3329;SDS011;1677;49.576;10.990;2023-02-25T06:53:40;7.28;;;3.08;;
3329;SDS011;1677;49.576;10.990;2023-02-25T06:56:06;6.43;;;2.95;;
3329;SDS011;1677;49.576;10.990;2023-02-25T06:58:34;6.85;;;3.63;;
3329;SDS011;1677;49.576;10.990;2023-02-25T07:01:03;6.50;;;3.05;;
3329;SDS011;1677;49.576;10.990;2023-02-25T07:03:31;9.05;;;4.65;;
3329;SDS011;1677;49.576;10.990;2023-02-25T07:05:56;8.13;;;3.40;;
3329;SDS011;1677;49.576;10.990;2023-02-25T07:08:22;6.00;;;2.30;;
3329;SDS011;1677;49.576;10.990;2023-02-25T07:10:47;3.87;;;2.93;;
3329;SDS011;1677;49.576;10.990;2023-02-25T07:13:13;6.70;;;3.80;;
3329;SDS011;1677;49.576;10.990;2023-02-25T07:15:38;3.73;;;2.30;;
3329;SDS011;1677;49.576;10.990;2023-02-25T07:18:04;6.60;;;4.10;;
3329;SDS011;1677;49.576;10.990;2023-02-25T07:20:30;5.53;;;3.30;;
3329;SDS011;1677;49.576;10.990;2023-02-25T07:22:55;6.80;;;3.33;;
3329;SDS011;1677;49.576;10.990;2023-02-25T07:25:21;7.23;;;3.10;;
3329;SDS011;1677;49.576;10.990;2023-02-25T07:27:47;4.27;;;2.90;;
3329;SDS011;1677;49.576;10.990;2023-02-25T07:30:13;6.77;;;3.40;;
3329;SDS011;1677;49.576;10.990;2023-02-25T07:32:39;7.43;;;4.30;;
3329;SDS011;1677;49.576;10.990;2023-02-25T07:35:05;7.35;;;4.20;;
3329;SDS011;1677;49.576;10.990;2023-02-25T07:37:31;8.00;;;3.97;;
3329;SDS011;1677;49.576;10.990;2023-02-25T07:39:57;5.50;;;3.90;;
3329;SDS011;1677;49.576;10.990;2023-02-25T07:42:24;7.82;;;3.60;;
3329;SDS011;1677;49.576;10.990;2023-02-25T07:44:53;8.25;;;3.40;;
3329;SDS011;1677;49.576;10.990;2023-02-25T07:47:18;9.30;;;3.03;;
3329;SDS011;1677;49.576;10.990;2023-02-25T07:49:44;7.75;;;3.20;;
3329;SDS011;1677;49.576;10.990;2023-02-25T07:52:10;7.67;;;3.33;;
3329;SDS011;1677;49.576;10.990;2023-02-25T07:54:36;10.67;;;2.70;;
3329;SDS011;1677;49.576;10.990;2023-02-25T07:57:01;3.93;;;3.17;;
3329;SDS011;1677;49.576;10.990;2023-02-25T07:59:27;5.32;;;3.90;;
3329;SDS011;1677;49.576;10.990;2023-02-25T08:01:53;4.90;;;3.03;;
3329;SDS011;1677;49.576;10.990;2023-02-25T08:04:19;5.17;;;2.73;;
3329;SDS011;1677;49.576;10.990;2023-02-25T08:06:44;5.60;;;3.07;;
3329;SDS011;1677;49.576;10.990;2023-02-25T08:09:11;8.57;;;3.00;;
3329;SDS011;1677;49.576;10.990;2023-02-25T08:11:37;4.00;;;2.77;;
3329;SDS011;1677;49.576;10.990;2023-02-25T08:14:04;5.45;;;2.70;;
3329;SDS011;1677;49.576;10.990;2023-02-25T08:16:30;2.63;;;2.40;;
3329;SDS011;1677;49.576;10.990;2023-02-25T08:18:57;6.95;;;3.08;;
3329;SDS011;1677;49.576;10.990;2023-02-25T08:21:23;3.53;;;2.63;;
3329;SDS011;1677;49.576;10.990;2023-02-25T08:23:49;6.80;;;3.30;;
3329;SDS011;1677;49.576;10.990;2023-02-25T08:26:16;4.82;;;3.50;;
3329;SDS011;1677;49.576;10.990;2023-02-25T08:28:43;7.00;;;2.80;;
3329;SDS011;1677;49.576;10.990;2023-02-25T08:31:10;6.88;;;3.75;;
3329;SDS011;1677;49.576;10.990;2023-02-25T08:33:36;4.07;;;3.13;;
3329;SDS011;1677;49.576;10.990;2023-02-25T08:36:04;5.70;;;2.63;;
3329;SDS011;1677;49.576;10.990;2023-02-25T08:38:34;6.45;;;3.25;;
3329;SDS011;1677;49.576;10.990;2023-02-25T08:41:01;8.43;;;3.03;;
3329;SDS011;1677;49.576;10.990;2023-02-25T08:43:27;6.27;;;5.17;;
3329;SDS011;1677;49.576;10.990;2023-02-25T08:45:52;4.97;;;2.40;;
3329;SDS011;1677;49.576;10.990;2023-02-25T08:48:20;6.20;;;2.75;;
3329;SDS011;1677;49.576;10.990;2023-02-25T08:50:46;7.50;;;3.10;;
3329;SDS011;1677;49.576;10.990;2023-02-25T08:53:12;5.03;;;3.20;;
3329;SDS011;1677;49.576;10.990;2023-02-25T08:55:37;8.57;;;3.10;;
3329;SDS011;1677;49.576;10.990;2023-02-25T08:58:03;5.47;;;2.97;;
3329;SDS011;1677;49.576;10.990;2023-02-25T09:00:29;8.10;;;3.20;;
3329;SDS011;1677;49.576;10.990;2023-02-25T09:02:55;10.17;;;3.27;;
3329;SDS011;1677;49.576;10.990;2023-02-25T09:05:21;5.30;;;3.10;;
3329;SDS011;1677;49.576;10.990;2023-02-25T09:07:48;4.13;;;2.72;;
3329;SDS011;1677;49.576;10.990;2023-02-25T09:10:14;8.30;;;3.30;;
3329;SDS011;1677;49.576;10.990;2023-02-25T09:12:40;10.90;;;3.00;;
3329;SDS011;1677;49.576;10.990;2023-02-25T09:15:07;6.60;;;3.17;;
3329;SDS011;1677;49.576;10.990;2023-02-25T09:17:34;2.92;;;2.50;;
3329;SDS011;1677;49.576;10.990;2023-02-25T09:19:59;8.43;;;3.10;;
3329;SDS011;1677;49.576;10.990;2023-02-25T09:22:25;6.97;;;3.07;;
3329;SDS011;1677;49.576;10.990;2023-02-25T09:24:52;6.15;;;2.65;;
3329;SDS011;1677;49.576;10.990;2023-02-25T09:27:17;4.53;;;3.00;;
3329;SDS011;1677;49.576;10.990;2023-02-25T09:29:43;5.23;;;2.83;;
3329;SDS011;1677;49.576;10.990;2023-02-25T09:32:17;6.70;;;3.10;;
3329;SDS011;1677;49.576;10.990;2023-02-25T09:34:44;4.20;;;3.13;;
3329;SDS011;1677;49.576;10.990;2023-02-25T09:37:10;7.87;;;3.37;;
3329;SDS011;1677;49.576;10.990;2023-02-25T09:39:37;5.15;;;3.20;;
3329;SDS011;1677;49.576;10.990;2023-02-25T09:44:30;6.53;;;3.30;;
3329;SDS011;1677;49.576;10.990;2023-02-25T09:47:04;3.83;;;3.20;;
3329;SDS011;1677;49.576;10.990;2023-02-25T09:49:35;3.72;;;2.83;;
3329;SDS011;1677;49.576;10.990;2023-02-25T09:52:14;8.05;;;3.97;;
3329;SDS011;1677;49.576;10.990;2023-02-25T09:54:45;6.07;;;2.75;;
3329;SDS011;1677;49.576;10.990;2023-02-25T09:57:16;6.18;;;2.80;;
3329;SDS011;1677;49.576;10.990;2023-02-25T09:59:46;5.45;;;3.05;;
3329;SDS011;1677;49.576;10.990;2023-02-25T10:02:18;6.95;;;3.30;;
3329;SDS011;1677;49.576;10.990;2023-02-25T10:04:49;5.30;;;2.88;;
3329;SDS011;1677;49.576;10.990;2023-02-25T10:07:18;6.55;;;3.10;;
3329;SDS011;1677;49.576;10.990;2023-02-25T10:28:49;6.10;;;3.10;;
3329;SDS011;1677;49.576;10.990;2023-02-25T10:31:30;5.35;;;3.05;;
3329;SDS011;1677;49.576;10.990;2023-02-25T10:33:56;5.60;;;2.60;;
3329;SDS011;1677;49.576;10.990;2023-02-25T10:36:29;3.08;;;2.58;;
3329;SDS011;1677;49.576;10.990;2023-02-25T10:38:56;8.55;;;3.00;;
3329;SDS011;1677;49.576;10.990;2023-02-25T10:41:22;9.43;;;2.97;;
3329;SDS011;1677;49.576;10.990;2023-02-25T10:43:51;5.72;;;3.28;;
3329;SDS011;1677;49.576;10.990;2023-02-25T10:46:20;8.35;;;3.90;;
3329;SDS011;1677;49.576;10.990;2023-02-25T10:48:56;4.32;;;2.95;;
3329;SDS011;1677;49.576;10.990;2023-02-25T10:51:27;4.82;;;2.67;;
3329;SDS011;1677;49.576;10.990;2023-02-25T10:56:43;4.38;;;2.10;;
3329;SDS011;1677;49.576;10.990;2023-02-25T10:59:24;6.25;;;2.83;;
3329;SDS011;1677;49.576;10.990;2023-02-25T11:01:52;3.10;;;2.25;;
3329;SDS011;1677;49.576;10.990;2023-02-25T11:04:21;5.18;;;2.20;;
3329;SDS011;1677;49.576;10.990;2023-02-25T11:06:51;4.75;;;1.75;;
3329;SDS011;1677;49.576;10.990;2023-02-25T11:11:51;2.90;;;2.33;;
3329;SDS011;1677;49.576;10.990;2023-02-25T11:14:17;3.90;;;2.40;;
3329;SDS011;1677;49.576;10.990;2023-02-25T11:16:43;2.83;;;2.30;;
3329;SDS011;1677;49.576;10.990;2023-02-25T11:21:42;4.82;;;2.42;;
3329;SDS011;1677;49.576;10.990;2023-02-25T11:24:12;2.75;;;2.22;;
3329;SDS011;1677;49.576;10.990;2023-02-25T11:26:44;7.35;;;2.88;;
3329;SDS011;1677;49.576;10.990;2023-02-25T11:29:23;5.30;;;2.65;;
3329;SDS011;1677;49.576;10.990;2023-02-25T11:34:38;5.10;;;3.20;;
3329;SDS011;1677;49.576;10.990;2023-02-25T11:37:33;4.30;;;2.70;;
3329;SDS011;1677;49.576;10.990;2023-02-25T11:45:33;6.37;;;2.57;;
3329;SDS011;1677;49.576;10.990;2023-02-25T11:48:03;4.55;;;3.08;;
3329;SDS011;1677;49.576;10.990;2023-02-25T11:50:48;4.00;;;2.40;;
3329;SDS011;1677;49.576;10.990;2023-02-25T11:56:15;4.45;;;2.80;;
3329;SDS011;1677;49.576;10.990;2023-02-25T12:02:22;5.97;;;2.60;;
3329;SDS011;1677;49.576;10.990;2023-02-25T12:05:03;5.68;;;3.35;;
3329;SDS011;1677;49.576;10.990;2023-02-25T12:07:57;7.78;;;2.85;;
3329;SDS011;1677;49.576;10.990;2023-02-25T12:10:51;4.00;;;2.72;;
3329;SDS011;1677;49.576;10.990;2023-02-25T12:22:01;5.18;;;2.90;;
3329;SDS011;1677;49.576;10.990;2023-02-25T12:35:50;6.35;;;2.67;;
3329;SDS011;1677;49.576;10.990;2023-02-25T12:44:08;3.47;;;1.77;;
3329;SDS011;1677;49.576;10.990;2023-02-25T12:47:00;3.35;;;1.90;;
3329;SDS011;1677;49.576;10.990;2023-02-25T12:52:33;7.88;;;4.45;;
3329;SDS011;1677;49.576;10.990;2023-02-25T12:55:14;4.95;;;2.83;;
3329;SDS011;1677;49.576;10.990;2023-02-25T12:58:05;6.70;;;2.75;;
3329;SDS011;1677;49.576;10.990;2023-02-25T13:06:27;3.00;;;1.40;;
3329;SDS011;1677;49.576;10.990;2023-02-25T13:09:12;2.13;;;1.15;;
3329;SDS011;1677;49.576;10.990;2023-02-25T13:15:02;1.35;;;0.90;;
3329;SDS011;1677;49.576;10.990;2023-02-25T13:23:32;1.83;;;1.15;;
3329;SDS011;1677;49.576;10.990;2023-02-25T13:26:16;1.75;;;1.00;;
3329;SDS011;1677;49.576;10.990;2023-02-25T13:29:10;2.40;;;1.00;;
3329;SDS011;1677;49.576;10.990;2023-02-25T13:34:34;3.92;;;1.40;;
3329;SDS011;1677;49.576;10.990;2023-02-25T13:43:06;3.03;;;1.25;;
3329;SDS011;1677;49.576;10.990;2023-02-25T13:59:09;1.80;;;1.42;;
3329;SDS011;1677;49.576;10.990;2023-02-25T14:01:46;1.38;;;1.10;;
3329;SDS011;1677;49.576;10.990;2023-02-25T14:07:08;1.13;;;0.90;;
3329;SDS011;1677;49.576;10.990;2023-02-25T14:10:15;3.55;;;1.10;;
3329;SDS011;1677;49.576;10.990;2023-02-25T14:13:25;2.15;;;1.00;;
3329;SDS011;1677;49.576;10.990;2023-02-25T14:16:17;1.60;;;1.13;;
3329;SDS011;1677;49.576;10.990;2023-02-25T14:24:55;1.30;;;0.90;;
3329;SDS011;1677;49.576;10.990;2023-02-25T14:27:30;1.25;;;0.95;;
3329;SDS011;1677;49.576;10.990;2023-02-25T14:32:48;2.75;;;0.90;;
3329;SDS011;1677;49.576;10.990;2023-02-25T14:38:47;3.92;;;1.40;;
3329;SDS011;1677;49.576;10.990;2023-02-25T14:44:19;1.10;;;0.85;;
3329;SDS011;1677;49.576;10.990;2023-02-25T14:47:15;1.95;;;1.13;;
3329;SDS011;1677;49.576;10.990;2023-02-25T14:49:53;2.67;;;1.20;;
3329;SDS011;1677;49.576;10.990;2023-02-25T14:57:52;1.50;;;1.10;;
3329;SDS011;1677;49.576;10.990;2023-02-25T15:03:22;2.30;;;1.42;;
3329;SDS011;1677;49.576;10.990;2023-02-25T15:35:59;1.75;;;1.65;;
3329;SDS011;1677;49.576;10.990;2023-02-25T15:38:44;2.40;;;1.60;;
3329;SDS011;1677;49.576;10.990;2023-02-25T15:43:58;2.45;;;1.38;;
3329;SDS011;1677;49.576;10.990;2023-02-25T15:51:42;3.40;;;1.15;;
3329;SDS011;1677;49.576;10.990;2023-02-25T15:57:03;2.97;;;1.17;;
3329;SDS011;1677;49.576;10.990;2023-02-25T15:59:51;1.83;;;1.05;;
3329;SDS011;1677;49.576;10.990;2023-02-25T16:04:57;2.58;;;1.00;;
3329;SDS011;1677;49.576;10.990;2023-02-25T16:07:41;1.63;;;1.10;;
3329;SDS011;1677;49.576;10.990;2023-02-25T16:10:20;1.10;;;1.00;;
3329;SDS011;1677;49.576;10.990;2023-02-25T16:12:55;2.10;;;1.20;;
3329;SDS011;1677;49.576;10.990;2023-02-25T16:15:36;5.15;;;1.30;;
3329;SDS011;1677;49.576;10.990;2023-02-25T16:18:11;1.17;;;1.08;;
3329;SDS011;1677;49.576;10.990;2023-02-25T16:21:02;1.20;;;1.10;;
3329;SDS011;1677;49.576;10.990;2023-02-25T16:23:30;1.60;;;1.17;;
3329;SDS011;1677;49.576;10.990;2023-02-25T16:26:01;2.72;;;1.35;;
3329;SDS011;1677;49.576;10.990;2023-02-25T16:29:06;1.50;;;1.30;;
3329;SDS011;1677;49.576;10.990;2023-02-25T16:31:49;1.42;;;1.10;;
3329;SDS011;1677;49.576;10.990;2023-02-25T16:35:04;1.88;;;1.35;;
3329;SDS011;1677;49.576;10.990;2023-02-25T16:37:30;1.90;;;1.23;;
3329;SDS011;1677;49.576;10.990;2023-02-25T16:40:01;1.52;;;1.05;;
3329;SDS011;1677;49.576;10.990;2023-02-25T16:42:27;1.52;;;1.00;;
3329;SDS011;1677;49.576;10.990;2023-02-25T16:45:01;2.10;;;1.88;;
3329;SDS011;1677;49.576;10.990;2023-02-25T16:47:30;1.38;;;1.27;;
3329;SDS011;1677;49.576;10.990;2023-02-25T16:49:59;1.85;;;1.65;;
3329;SDS011;1677;49.576;10.990;2023-02-25T16:52:33;5.32;;;1.45;;
3329;SDS011;1677;49.576;10.990;2023-02-25T16:55:02;2.25;;;1.45;;
3329;SDS011;1677;49.576;10.990;2023-02-25T16:57:33;1.60;;;1.30;;
3329;SDS011;1677;49.576;10.990;2023-02-25T17:00:18;3.10;;;1.50;;
3329;SDS011;1677;49.576;10.990;2023-02-25T17:02:47;1.42;;;1.25;;
3329;SDS011;1677;49.576;10.990;2023-02-25T17:05:25;1.85;;;1.20;;
3329;SDS011;1677;49.576;10.990;2023-02-25T17:07:54;5.97;;;2.10;;
3329;SDS011;1677;49.576;10.990;2023-02-25T17:10:24;2.70;;;2.10;;
3329;SDS011;1677;49.576;10.990;2023-02-25T17:12:52;2.17;;;1.90;;
3329;SDS011;1677;49.576;10.990;2023-02-25T17:15:26;1.20;;;1.10;;
3329;SDS011;1677;49.576;10.990;2023-02-25T17:20:40;2.70;;;1.67;;
3329;SDS011;1677;49.576;10.990;2023-02-25T17:23:08;1.77;;;1.17;;
3329;SDS011;1677;49.576;10.990;2023-02-25T17:25:37;1.95;;;1.45;;
3329;SDS011;1677;49.576;10.990;2023-02-25T17:28:16;7.70;;;5.07;;
3329;SDS011;1677;49.576;10.990;2023-02-25T17:30:46;4.20;;;2.47;;
3329;SDS011;1677;49.576;10.990;2023-02-25T17:33:25;3.67;;;1.50;;
3329;SDS011;1677;49.576;10.990;2023-02-25T17:35:53;1.88;;;1.58;;
3329;SDS011;1677;49.576;10.990;2023-02-25T17:38:23;4.22;;;1.77;;
3329;SDS011;1677;49.576;10.990;2023-02-25T17:40:50;2.15;;;1.50;;
3329;SDS011;1677;49.576;10.990;2023-02-25T17:43:20;3.63;;;1.90;;
3329;SDS011;1677;49.576;10.990;2023-02-25T17:45:52;1.10;;;1.00;;
3329;SDS011;1677;49.576;10.990;2023-02-25T17:48:28;1.30;;;1.10;;
3329;SDS011;1677;49.576;10.990;2023-02-25T17:51:00;1.10;;;0.82;;
3329;SDS011;1677;49.576;10.990;2023-02-25T17:53:43;2.35;;;1.10;;
3329;SDS011;1677;49.576;10.990;2023-02-25T17:56:21;2.65;;;1.13;;
3329;SDS011;1677;49.576;10.990;2023-02-25T17:58:50;1.10;;;0.90;;
3329;SDS011;1677;49.576;10.990;2023-02-25T18:01:17;1.13;;;1.02;;
3329;SDS011;1677;49.576;10.990;2023-02-25T18:03:46;2.28;;;1.00;;
3329;SDS011;1677;49.576;10.990;2023-02-25T18:08:58;1.30;;;1.10;;
3329;SDS011;1677;49.576;10.990;2023-02-25T18:11:29;1.65;;;1.20;;
3329;SDS011;1677;49.576;10.990;2023-02-25T18:17:03;2.40;;;0.90;;
3329;SDS011;1677;49.576;10.990;2023-02-25T18:19:46;2.33;;;1.25;;
3329;SDS011;1677;49.576;10.990;2023-02-25T18:27:54;1.20;;;1.00;;
3329;SDS011;1677;49.576;10.990;2023-02-25T18:30:20;1.60;;;1.00;;
3329;SDS011;1677;49.576;10.990;2023-02-25T18:32:48;1.35;;;1.10;;
3329;SDS011;1677;49.576;10.990;2023-02-25T18:35:15;4.22;;;1.13;;
3329;SDS011;1677;49.576;10.990;2023-02-25T18:37:42;1.80;;;1.08;;
3329;SDS011;1677;49.576;10.990;2023-02-25T18:40:13;2.08;;;0.90;;
3329;SDS011;1677;49.576;10.990;2023-02-25T18:42:40;1.10;;;1.00;;
3329;SDS011;1677;49.576;10.990;2023-02-25T18:45:16;2.70;;;1.70;;
3329;SDS011;1677;49.576;10.990;2023-02-25T18:47:45;2.58;;;1.40;;